M/V Alton St. Amant — WDE7604 — position and weather

sailwx.info

Track history (hours):
 
Tides and Currents Weather Stations Pressure Air Temp Water Temp Dewpoint Dewpoint Depression Visibility Wind Speed Wind Dir Waves Ship Positions

M/V Alton St. Amant

Owner: The Barge Investment Group Five, L.L.C., Harahan, LA. More information available from US FCC via Universal Licensing System and Coast Guard Vessel Documentation Center.

Last reported at 2017-Jul-23 08:06 UTC. Time now 2017-Jul-23 08:38 UTC.
Position N 29°47' W 095°05'.

Length 25 m; draft 2.7 m.

Type: Towing. MMSI: 367395270.

Date/timePositionNaut miles runAvg speedWind from/ knotsBaromVisibWave heightAir tempDewpointWater temp
2017-Jul-23 08:06N 29°47' W 095°05'0 0.0
2017-Jul-23 07:55N 29°47' W 095°05'0 0.0
2017-Jul-23 06:47N 29°47' W 095°05'0 0.0
2017-Jul-23 06:30N 29°47' W 095°05'0 0.0
2017-Jul-23 05:57N 29°47' W 095°05'0 0.0
2017-Jul-23 04:31N 29°47' W 095°05'0 0.0
2017-Jul-23 04:19N 29°47' W 095°05'0 0.0
2017-Jul-23 03:59N 29°47' W 095°05'0 0.0
2017-Jul-23 03:26N 29°47' W 095°05'0 0.0
2017-Jul-23 03:00N 29°47' W 095°05'0 0.0
2017-Jul-23 00:51N 29°47' W 095°05'0 0.0
2017-Jul-22 23:28N 29°47' W 095°05'0 0.0
2017-Jul-22 22:11N 29°47' W 095°05'0 0.0
2017-Jul-22 21:46N 29°47' W 095°05'0 0.0
2017-Jul-22 18:54N 29°47' W 095°05'0 0.0
2017-Jul-22 18:24N 29°47' W 095°05'0 0.0
2017-Jul-22 17:56N 29°47' W 095°05'0 0.0
2017-Jul-22 17:26N 29°47' W 095°05'0 0.0
2017-Jul-22 16:11N 29°47' W 095°05'0 0.0
2017-Jul-22 15:58N 29°47' W 095°05'0 0.0
2017-Jul-22 15:27N 29°47' W 095°05'0 0.0
2017-Jul-22 14:59N 29°47' W 095°05'0 0.0
2017-Jul-22 12:49N 29°47' W 095°05'0 0.0
2017-Jul-22 12:30N 29°47' W 095°05'0 0.0
2017-Jul-22 11:46N 29°47' W 095°05'0 0.0
2017-Jul-22 11:30N 29°47' W 095°05'0 0.0
2017-Jul-22 10:58N 29°47' W 095°05'0 0.0
2017-Jul-22 10:21N 29°47' W 095°05'0 0.0
2017-Jul-22 09:59N 29°47' W 095°05'0 0.0
2017-Jul-22 00:55N 29°47' W 095°05'1 3.3
2017-Jul-22 00:28N 29°46' W 095°05'2 5.3
2017-Jul-22 00:00N 29°44' W 095°03'0 0.0
2017-Jul-21 23:30N 29°44' W 095°03'2 3.2
2017-Jul-21 23:00N 29°45' W 095°04'2 4.3
2017-Jul-21 22:29N 29°47' W 095°05'0 0.0
2017-Jul-21 19:50N 29°47' W 095°05'0 0.0
2017-Jul-21 19:28N 29°47' W 095°05'0 0.0
2017-Jul-21 18:56N 29°47' W 095°05'0 0.0
2017-Jul-21 18:29N 29°47' W 095°05'0 0.0
2017-Jul-21 15:14N 29°47' W 095°05'0 0.1
2017-Jul-21 13:58N 29°47' W 095°05'0 0.0
2017-Jul-21 11:50N 29°47' W 095°05'0 0.0
2017-Jul-21 03:35N 29°47' W 095°05'0 1.6
2017-Jul-21 03:30N 29°47' W 095°05'0 0.3
2017-Jul-21 02:58N 29°47' W 095°04'2 3.3
2017-Jul-21 02:28N 29°46' W 095°05'3 5.3
2017-Jul-21 01:49N 29°44' W 095°09'2 6.1
2017-Jul-21 01:30N 29°45' W 095°11'1 0.1
2017-Jul-20 10:19N 29°45' W 095°12'0 0.0
2017-Jul-20 10:00N 29°45' W 095°12'0 0.0
2017-Jul-20 06:13N 29°45' W 095°12'0 0.1
2017-Jul-20 05:44N 29°45' W 095°12'0 0.0
2017-Jul-20 05:11N 29°45' W 095°12'0 0.7
2017-Jul-20 04:58N 29°44' W 095°12'0 0.4
2017-Jul-20 04:31N 29°45' W 095°12'1 0.5
2017-Jul-20 03:21N 29°45' W 095°11'1 3.2
2017-Jul-20 03:00N 29°45' W 095°10'3 5.0
2017-Jul-20 02:29N 29°44' W 095°07'2 4.9
2017-Jul-20 02:00N 29°46' W 095°05'2 2.5
2017-Jul-20 01:24N 29°47' W 095°05'0 0.4
2017-Jul-20 01:00N 29°47' W 095°05'0 0.0
2017-Jul-20 00:06N 29°47' W 095°05'0 0.9
2017-Jul-20 00:00N 29°47' W 095°05'0 0.0
2017-Jul-19 13:04N 29°47' W 095°05'0 0.1
2017-Jul-19 12:52N 29°47' W 095°05'0 0.2
2017-Jul-19 12:24N 29°47' W 095°05'0 0.0
2017-Jul-19 02:12N 29°47' W 095°05'1 3.5
2017-Jul-19 01:47N 29°46' W 095°05'2 6.3
2017-Jul-19 01:29N 29°44' W 095°03'1 1.3
2017-Jul-19 01:00N 29°44' W 095°03'0 0.0
2017-Jul-19 00:30N 29°44' W 095°03'2 4.1
2017-Jul-18 23:54N 29°46' W 095°05'2 0.1
2017-Jul-18 05:47N 29°47' W 095°05'0 0.3
2017-Jul-18 05:30N 29°47' W 095°05'0 0.4
2017-Jul-18 04:57N 29°47' W 095°04'2 3.6
2017-Jul-18 04:30N 29°46' W 095°05'2 4.9
2017-Jul-18 04:00N 29°44' W 095°03'0 0.3
2017-Jul-18 03:30N 29°44' W 095°03'0 0.0
2017-Jul-18 03:00N 29°44' W 095°03'0 0.0
2017-Jul-18 02:30N 29°44' W 095°03'0 0.0
2017-Jul-18 02:00N 29°44' W 095°03'0 0.0
2017-Jul-18 01:30N 29°44' W 095°03'0 0.1
2017-Jul-18 01:00N 29°44' W 095°03'0 0.1
2017-Jul-18 00:30N 29°44' W 095°03'0 0.0
2017-Jul-18 00:00N 29°44' W 095°03'0 0.0
2017-Jul-17 23:30N 29°44' W 095°03'0 0.0
2017-Jul-17 23:00N 29°44' W 095°03'0 0.0
2017-Jul-17 22:30N 29°44' W 095°03'0 0.0
2017-Jul-17 22:00N 29°44' W 095°03'0 0.0
2017-Jul-17 21:30N 29°44' W 095°03'0 0.0
2017-Jul-17 21:00N 29°44' W 095°03'0 0.0
2017-Jul-17 20:30N 29°44' W 095°03'0 0.0
2017-Jul-17 20:00N 29°44' W 095°03'0 0.0
2017-Jul-17 19:30N 29°44' W 095°03'0 0.0
2017-Jul-17 19:00N 29°44' W 095°03'0 0.0
2017-Jul-17 18:30N 29°44' W 095°03'0 0.0
2017-Jul-17 18:00N 29°44' W 095°03'0 0.0
2017-Jul-17 17:30N 29°44' W 095°03'0 0.0
2017-Jul-17 17:00N 29°44' W 095°03'0 0.0
2017-Jul-17 16:30N 29°44' W 095°03'0 0.0
2017-Jul-17 16:00N 29°44' W 095°03'0 0.0
2017-Jul-17 15:30N 29°44' W 095°03'0 0.0
2017-Jul-17 14:04N 29°44' W 095°03'0 0.0
2017-Jul-17 14:00N 29°44' W 095°03'0 0.0
2017-Jul-17 13:30N 29°44' W 095°03'0 0.0
2017-Jul-17 13:00N 29°44' W 095°03'0 0.0
2017-Jul-17 12:30N 29°44' W 095°03'0 0.0
2017-Jul-17 12:00N 29°44' W 095°03'0 0.0
2017-Jul-17 11:30N 29°44' W 095°03'0 0.0
2017-Jul-17 11:00N 29°44' W 095°03'0 0.0
2017-Jul-17 10:30N 29°44' W 095°03'0 0.0
2017-Jul-17 10:00N 29°44' W 095°03'0 0.0
2017-Jul-17 09:30N 29°44' W 095°03'0 0.0
2017-Jul-17 09:00N 29°44' W 095°03'0 0.0
2017-Jul-17 08:30N 29°44' W 095°03'0 0.0
2017-Jul-17 08:00N 29°44' W 095°03'0 0.0
2017-Jul-17 07:30N 29°44' W 095°03'0 0.0
2017-Jul-17 07:00N 29°44' W 095°03'0 0.0
2017-Jul-17 06:30N 29°44' W 095°03'0 0.0
2017-Jul-17 06:00N 29°44' W 095°03'0 0.0
2017-Jul-17 05:30N 29°44' W 095°03'0 0.0
2017-Jul-17 05:00N 29°44' W 095°03'0 0.0
2017-Jul-17 04:30N 29°44' W 095°03'0 0.0
2017-Jul-17 04:00N 29°44' W 095°03'0 0.0
2017-Jul-17 03:28N 29°44' W 095°03'0 0.0
2017-Jul-17 03:00N 29°44' W 095°03'0 0.0
2017-Jul-17 02:30N 29°44' W 095°03'0 0.0
2017-Jul-17 02:00N 29°44' W 095°03'0 0.0
2017-Jul-17 01:30N 29°44' W 095°03'0 0.0
2017-Jul-17 01:00N 29°44' W 095°03'0 0.0
2017-Jul-17 00:30N 29°44' W 095°03'0 0.1
2017-Jul-17 00:00N 29°44' W 095°03'0 0.2
2017-Jul-16 23:30N 29°44' W 095°03'2 3.2
2017-Jul-16 22:56N 29°45' W 095°04'2 0.2
2017-Jul-16 13:50N 29°47' W 095°05'0 0.3
2017-Jul-16 13:14N 29°47' W 095°05'0 1.0
2017-Jul-16 13:00N 29°47' W 095°04'2 2.2
2017-Jul-16 12:17N 29°46' W 095°05'1 2.0
2017-Jul-16 12:00N 29°46' W 095°04'2 3.5
2017-Jul-16 11:30N 29°44' W 095°03'2 3.2
2017-Jul-16 11:00N 29°44' W 095°01'0 0.0
2017-Jul-16 10:30N 29°44' W 095°01'0 0.0
2017-Jul-16 10:00N 29°44' W 095°01'0 0.0
2017-Jul-16 09:30N 29°44' W 095°01'0 0.0
2017-Jul-16 09:00N 29°44' W 095°01'0 0.1
2017-Jul-16 08:30N 29°44' W 095°01'0 0.1
2017-Jul-16 06:49N 29°44' W 095°01'0 0.0
2017-Jul-16 06:28N 29°44' W 095°01'0 0.0
2017-Jul-16 06:00N 29°44' W 095°01'0 0.0
2017-Jul-16 05:30N 29°44' W 095°01'0 0.0
2017-Jul-16 03:50N 29°44' W 095°01'0 0.0
2017-Jul-16 03:09N 29°44' W 095°01'0 0.0
2017-Jul-16 03:00N 29°44' W 095°01'0 0.0
2017-Jul-16 02:10N 29°44' W 095°01'0 0.0
2017-Jul-16 01:56N 29°44' W 095°01'0 0.0
2017-Jul-16 00:54N 29°44' W 095°01'0 0.0
2017-Jul-16 00:29N 29°44' W 095°01'0 0.0
2017-Jul-15 23:49N 29°44' W 095°01'0 0.0
2017-Jul-15 20:51N 29°44' W 095°01'0 0.0
2017-Jul-15 20:26N 29°44' W 095°01'0 0.0
2017-Jul-15 20:00N 29°44' W 095°01'0 0.0
2017-Jul-15 19:23N 29°44' W 095°01'0 0.0
2017-Jul-15 18:51N 29°44' W 095°01'0 0.0
2017-Jul-15 18:28N 29°44' W 095°01'0 0.0
2017-Jul-15 17:39N 29°44' W 095°01'0 0.0
2017-Jul-15 17:11N 29°44' W 095°01'0 0.0
2017-Jul-15 16:53N 29°44' W 095°01'0 0.0
2017-Jul-15 16:23N 29°44' W 095°01'0 0.0
2017-Jul-15 16:00N 29°44' W 095°01'0 0.0
2017-Jul-15 15:30N 29°44' W 095°01'0 0.0
2017-Jul-15 15:00N 29°44' W 095°01'0 0.0
2017-Jul-15 14:00N 29°44' W 095°01'0 0.0
2017-Jul-15 13:31N 29°44' W 095°01'0 0.0
2017-Jul-15 12:59N 29°44' W 095°01'0 0.0
2017-Jul-15 12:19N 29°44' W 095°01'0 0.0
2017-Jul-15 10:42N 29°44' W 095°01'0 0.0
2017-Jul-15 10:30N 29°44' W 095°01'0 0.1
2017-Jul-15 09:18N 29°44' W 095°01'0 0.2
2017-Jul-15 09:00N 29°44' W 095°01'0 0.0
2017-Jul-14 22:28N 29°44' W 095°01'1 2.6
2017-Jul-14 22:00N 29°44' W 095°03'3 5.5
2017-Jul-14 21:30N 29°46' W 095°05'1 0.5
2017-Jul-14 19:12N 29°47' W 095°06'1 3.3
2017-Jul-14 18:54N 29°47' W 095°05'2 3.8
2017-Jul-14 18:29N 29°46' W 095°05'4 6.4
2017-Jul-14 17:55N 29°44' W 095°09'4 5.9
2017-Jul-14 17:18N 29°43' W 095°13'0 0.1
2017-Jul-14 11:36N 29°44' W 095°13'0 0.0
2017-Jul-14 11:30N 29°44' W 095°13'0 0.0
2017-Jul-14 11:00N 29°44' W 095°13'0 0.0
2017-Jul-14 10:14N 29°44' W 095°13'0 0.0
2017-Jul-14 09:53N 29°44' W 095°13'0 0.0
2017-Jul-14 09:06N 29°44' W 095°13'0 0.0
2017-Jul-14 04:43N 29°44' W 095°13'0 1.3
2017-Jul-14 04:21N 29°43' W 095°14'1 1.3
2017-Jul-14 03:56N 29°44' W 095°13'1 0.3
2017-Jul-14 02:00N 29°43' W 095°14'3 5.4
2017-Jul-14 01:30N 29°45' W 095°11'3 7.0
2017-Jul-14 01:00N 29°44' W 095°07'3 6.2
2017-Jul-14 00:27N 29°47' W 095°05'1 0.4
2017-Jul-13 22:41N 29°47' W 095°05'0 0.0
2017-Jul-13 13:47N 29°47' W 095°06'0 0.0
2017-Jul-13 12:56N 29°47' W 095°06'1 0.5
2017-Jul-13 10:57N 29°47' W 095°05'1 2.0
2017-Jul-13 10:30N 29°47' W 095°06'0 0.0
2017-Jul-13 10:00N 29°47' W 095°06'0 0.0
2017-Jul-13 09:30N 29°47' W 095°06'0 0.0
2017-Jul-13 08:59N 29°47' W 095°06'0 0.0
2017-Jul-13 08:30N 29°47' W 095°06'  
Track history (hours):
 
Tides and Currents Weather Stations Pressure Air Temp Water Temp Dewpoint Dewpoint Depression Visibility Wind Speed Wind Dir Waves Ship Positions

M/V Alton St. Amant

Owner: The Barge Investment Group Five, L.L.C., Harahan, LA. More information available from US FCC via Universal Licensing System and Coast Guard Vessel Documentation Center.

Last reported at 2017-Jul-23 08:06 UTC. Time now 2017-Jul-23 08:38 UTC.
Position N 29°47' W 095°05'.

Length 25 m; draft 2.7 m.

Type: Towing. MMSI: 367395270.

Date/timePositionNaut miles runAvg speedWind from/ knotsBaromVisibWave heightAir tempDewpointWater temp
2017-Jul-23 08:06N 29°47' W 095°05'0 0.0
2017-Jul-23 07:55N 29°47' W 095°05'0 0.0
2017-Jul-23 06:47N 29°47' W 095°05'0 0.0
2017-Jul-23 06:30N 29°47' W 095°05'0 0.0
2017-Jul-23 05:57N 29°47' W 095°05'0 0.0
2017-Jul-23 04:31N 29°47' W 095°05'0 0.0
2017-Jul-23 04:19N 29°47' W 095°05'0 0.0
2017-Jul-23 03:59N 29°47' W 095°05'0 0.0
2017-Jul-23 03:26N 29°47' W 095°05'0 0.0
2017-Jul-23 03:00N 29°47' W 095°05'0 0.0
2017-Jul-23 00:51N 29°47' W 095°05'0 0.0
2017-Jul-22 23:28N 29°47' W 095°05'0 0.0
2017-Jul-22 22:11N 29°47' W 095°05'0 0.0
2017-Jul-22 21:46N 29°47' W 095°05'0 0.0
2017-Jul-22 18:54N 29°47' W 095°05'0 0.0
2017-Jul-22 18:24N 29°47' W 095°05'0 0.0
2017-Jul-22 17:56N 29°47' W 095°05'0 0.0
2017-Jul-22 17:26N 29°47' W 095°05'0 0.0
2017-Jul-22 16:11N 29°47' W 095°05'0 0.0
2017-Jul-22 15:58N 29°47' W 095°05'0 0.0
2017-Jul-22 15:27N 29°47' W 095°05'0 0.0
2017-Jul-22 14:59N 29°47' W 095°05'0 0.0
2017-Jul-22 12:49N 29°47' W 095°05'0 0.0
2017-Jul-22 12:30N 29°47' W 095°05'0 0.0
2017-Jul-22 11:46N 29°47' W 095°05'0 0.0
2017-Jul-22 11:30N 29°47' W 095°05'0 0.0
2017-Jul-22 10:58N 29°47' W 095°05'0 0.0
2017-Jul-22 10:21N 29°47' W 095°05'0 0.0
2017-Jul-22 09:59N 29°47' W 095°05'0 0.0
2017-Jul-22 00:55N 29°47' W 095°05'1 3.3
2017-Jul-22 00:28N 29°46' W 095°05'2 5.3
2017-Jul-22 00:00N 29°44' W 095°03'0 0.0
2017-Jul-21 23:30N 29°44' W 095°03'2 3.2
2017-Jul-21 23:00N 29°45' W 095°04'2 4.3
2017-Jul-21 22:29N 29°47' W 095°05'0 0.0
2017-Jul-21 19:50N 29°47' W 095°05'0 0.0
2017-Jul-21 19:28N 29°47' W 095°05'0 0.0
2017-Jul-21 18:56N 29°47' W 095°05'0 0.0
2017-Jul-21 18:29N 29°47' W 095°05'0 0.0
2017-Jul-21 15:14N 29°47' W 095°05'0 0.1
2017-Jul-21 13:58N 29°47' W 095°05'0 0.0
2017-Jul-21 11:50N 29°47' W 095°05'0 0.0
2017-Jul-21 03:35N 29°47' W 095°05'0 1.6
2017-Jul-21 03:30N 29°47' W 095°05'0 0.3
2017-Jul-21 02:58N 29°47' W 095°04'2 3.3
2017-Jul-21 02:28N 29°46' W 095°05'3 5.3
2017-Jul-21 01:49N 29°44' W 095°09'2 6.1
2017-Jul-21 01:30N 29°45' W 095°11'1 0.1
2017-Jul-20 10:19N 29°45' W 095°12'0 0.0
2017-Jul-20 10:00N 29°45' W 095°12'0 0.0
2017-Jul-20 06:13N 29°45' W 095°12'0 0.1
2017-Jul-20 05:44N 29°45' W 095°12'0 0.0
2017-Jul-20 05:11N 29°45' W 095°12'0 0.7
2017-Jul-20 04:58N 29°44' W 095°12'0 0.4
2017-Jul-20 04:31N 29°45' W 095°12'1 0.5
2017-Jul-20 03:21N 29°45' W 095°11'1 3.2
2017-Jul-20 03:00N 29°45' W 095°10'3 5.0
2017-Jul-20 02:29N 29°44' W 095°07'2 4.9
2017-Jul-20 02:00N 29°46' W 095°05'2 2.5
2017-Jul-20 01:24N 29°47' W 095°05'0 0.4
2017-Jul-20 01:00N 29°47' W 095°05'0 0.0
2017-Jul-20 00:06N 29°47' W 095°05'0 0.9
2017-Jul-20 00:00N 29°47' W 095°05'0 0.0
2017-Jul-19 13:04N 29°47' W 095°05'0 0.1
2017-Jul-19 12:52N 29°47' W 095°05'0 0.2
2017-Jul-19 12:24N 29°47' W 095°05'0 0.0
2017-Jul-19 02:12N 29°47' W 095°05'1 3.5
2017-Jul-19 01:47N 29°46' W 095°05'2 6.3
2017-Jul-19 01:29N 29°44' W 095°03'1 1.3
2017-Jul-19 01:00N 29°44' W 095°03'0 0.0
2017-Jul-19 00:30N 29°44' W 095°03'2 4.1
2017-Jul-18 23:54N 29°46' W 095°05'2 0.1
2017-Jul-18 05:47N 29°47' W 095°05'0 0.3
2017-Jul-18 05:30N 29°47' W 095°05'0 0.4
2017-Jul-18 04:57N 29°47' W 095°04'2 3.6
2017-Jul-18 04:30N 29°46' W 095°05'2 4.9
2017-Jul-18 04:00N 29°44' W 095°03'0 0.3
2017-Jul-18 03:30N 29°44' W 095°03'0 0.0
2017-Jul-18 03:00N 29°44' W 095°03'0 0.0
2017-Jul-18 02:30N 29°44' W 095°03'0 0.0
2017-Jul-18 02:00N 29°44' W 095°03'0 0.0
2017-Jul-18 01:30N 29°44' W 095°03'0 0.1
2017-Jul-18 01:00N 29°44' W 095°03'0 0.1
2017-Jul-18 00:30N 29°44' W 095°03'0 0.0
2017-Jul-18 00:00N 29°44' W 095°03'0 0.0
2017-Jul-17 23:30N 29°44' W 095°03'0 0.0
2017-Jul-17 23:00N 29°44' W 095°03'0 0.0
2017-Jul-17 22:30N 29°44' W 095°03'0 0.0
2017-Jul-17 22:00N 29°44' W 095°03'0 0.0
2017-Jul-17 21:30N 29°44' W 095°03'0 0.0
2017-Jul-17 21:00N 29°44' W 095°03'0 0.0
2017-Jul-17 20:30N 29°44' W 095°03'0 0.0
2017-Jul-17 20:00N 29°44' W 095°03'0 0.0
2017-Jul-17 19:30N 29°44' W 095°03'0 0.0
2017-Jul-17 19:00N 29°44' W 095°03'0 0.0
2017-Jul-17 18:30N 29°44' W 095°03'0 0.0
2017-Jul-17 18:00N 29°44' W 095°03'0 0.0
2017-Jul-17 17:30N 29°44' W 095°03'0 0.0
2017-Jul-17 17:00N 29°44' W 095°03'0 0.0
2017-Jul-17 16:30N 29°44' W 095°03'0 0.0
2017-Jul-17 16:00N 29°44' W 095°03'0 0.0
2017-Jul-17 15:30N 29°44' W 095°03'0 0.0
2017-Jul-17 14:04N 29°44' W 095°03'0 0.0
2017-Jul-17 14:00N 29°44' W 095°03'0 0.0
2017-Jul-17 13:30N 29°44' W 095°03'0 0.0
2017-Jul-17 13:00N 29°44' W 095°03'0 0.0
2017-Jul-17 12:30N 29°44' W 095°03'0 0.0
2017-Jul-17 12:00N 29°44' W 095°03'0 0.0
2017-Jul-17 11:30N 29°44' W 095°03'0 0.0
2017-Jul-17 11:00N 29°44' W 095°03'0 0.0
2017-Jul-17 10:30N 29°44' W 095°03'0 0.0
2017-Jul-17 10:00N 29°44' W 095°03'0 0.0
2017-Jul-17 09:30N 29°44' W 095°03'0 0.0
2017-Jul-17 09:00N 29°44' W 095°03'0 0.0
2017-Jul-17 08:30N 29°44' W 095°03'0 0.0
2017-Jul-17 08:00N 29°44' W 095°03'0 0.0
2017-Jul-17 07:30N 29°44' W 095°03'0 0.0
2017-Jul-17 07:00N 29°44' W 095°03'0 0.0
2017-Jul-17 06:30N 29°44' W 095°03'0 0.0
2017-Jul-17 06:00N 29°44' W 095°03'0 0.0
2017-Jul-17 05:30N 29°44' W 095°03'0 0.0
2017-Jul-17 05:00N 29°44' W 095°03'0 0.0
2017-Jul-17 04:30N 29°44' W 095°03'0 0.0
2017-Jul-17 04:00N 29°44' W 095°03'0 0.0
2017-Jul-17 03:28N 29°44' W 095°03'0 0.0
2017-Jul-17 03:00N 29°44' W 095°03'0 0.0
2017-Jul-17 02:30N 29°44' W 095°03'0 0.0
2017-Jul-17 02:00N 29°44' W 095°03'0 0.0
2017-Jul-17 01:30N 29°44' W 095°03'0 0.0
2017-Jul-17 01:00N 29°44' W 095°03'0 0.0
2017-Jul-17 00:30N 29°44' W 095°03'0 0.1
2017-Jul-17 00:00N 29°44' W 095°03'0 0.2
2017-Jul-16 23:30N 29°44' W 095°03'2 3.2
2017-Jul-16 22:56N 29°45' W 095°04'2 0.2
2017-Jul-16 13:50N 29°47' W 095°05'0 0.3
2017-Jul-16 13:14N 29°47' W 095°05'0 1.0
2017-Jul-16 13:00N 29°47' W 095°04'2 2.2
2017-Jul-16 12:17N 29°46' W 095°05'1 2.0
2017-Jul-16 12:00N 29°46' W 095°04'2 3.5
2017-Jul-16 11:30N 29°44' W 095°03'2 3.2
2017-Jul-16 11:00N 29°44' W 095°01'0 0.0
2017-Jul-16 10:30N 29°44' W 095°01'0 0.0
2017-Jul-16 10:00N 29°44' W 095°01'0 0.0
2017-Jul-16 09:30N 29°44' W 095°01'0 0.0
2017-Jul-16 09:00N 29°44' W 095°01'0 0.1
2017-Jul-16 08:30N 29°44' W 095°01'0 0.1
2017-Jul-16 06:49N 29°44' W 095°01'0 0.0
2017-Jul-16 06:28N 29°44' W 095°01'0 0.0
2017-Jul-16 06:00N 29°44' W 095°01'0 0.0
2017-Jul-16 05:30N 29°44' W 095°01'0 0.0
2017-Jul-16 03:50N 29°44' W 095°01'0 0.0
2017-Jul-16 03:09N 29°44' W 095°01'0 0.0
2017-Jul-16 03:00N 29°44' W 095°01'0 0.0
2017-Jul-16 02:10N 29°44' W 095°01'0 0.0
2017-Jul-16 01:56N 29°44' W 095°01'0 0.0
2017-Jul-16 00:54N 29°44' W 095°01'0 0.0
2017-Jul-16 00:29N 29°44' W 095°01'0 0.0
2017-Jul-15 23:49N 29°44' W 095°01'0 0.0
2017-Jul-15 20:51N 29°44' W 095°01'0 0.0
2017-Jul-15 20:26N 29°44' W 095°01'0 0.0
2017-Jul-15 20:00N 29°44' W 095°01'0 0.0
2017-Jul-15 19:23N 29°44' W 095°01'0 0.0
2017-Jul-15 18:51N 29°44' W 095°01'0 0.0
2017-Jul-15 18:28N 29°44' W 095°01'0 0.0
2017-Jul-15 17:39N 29°44' W 095°01'0 0.0
2017-Jul-15 17:11N 29°44' W 095°01'0 0.0
2017-Jul-15 16:53N 29°44' W 095°01'0 0.0
2017-Jul-15 16:23N 29°44' W 095°01'0 0.0
2017-Jul-15 16:00N 29°44' W 095°01'0 0.0
2017-Jul-15 15:30N 29°44' W 095°01'0 0.0
2017-Jul-15 15:00N 29°44' W 095°01'0 0.0
2017-Jul-15 14:00N 29°44' W 095°01'0 0.0
2017-Jul-15 13:31N 29°44' W 095°01'0 0.0
2017-Jul-15 12:59N 29°44' W 095°01'0 0.0
2017-Jul-15 12:19N 29°44' W 095°01'0 0.0
2017-Jul-15 10:42N 29°44' W 095°01'0 0.0
2017-Jul-15 10:30N 29°44' W 095°01'0 0.1
2017-Jul-15 09:18N 29°44' W 095°01'0 0.2
2017-Jul-15 09:00N 29°44' W 095°01'0 0.0
2017-Jul-14 22:28N 29°44' W 095°01'1 2.6
2017-Jul-14 22:00N 29°44' W 095°03'3 5.5
2017-Jul-14 21:30N 29°46' W 095°05'1 0.5
2017-Jul-14 19:12N 29°47' W 095°06'1 3.3
2017-Jul-14 18:54N 29°47' W 095°05'2 3.8
2017-Jul-14 18:29N 29°46' W 095°05'4 6.4
2017-Jul-14 17:55N 29°44' W 095°09'4 5.9
2017-Jul-14 17:18N 29°43' W 095°13'0 0.1
2017-Jul-14 11:36N 29°44' W 095°13'0 0.0
2017-Jul-14 11:30N 29°44' W 095°13'0 0.0
2017-Jul-14 11:00N 29°44' W 095°13'0 0.0
2017-Jul-14 10:14N 29°44' W 095°13'0 0.0
2017-Jul-14 09:53N 29°44' W 095°13'0 0.0
2017-Jul-14 09:06N 29°44' W 095°13'0 0.0
2017-Jul-14 04:43N 29°44' W 095°13'0 1.3
2017-Jul-14 04:21N 29°43' W 095°14'1 1.3
2017-Jul-14 03:56N 29°44' W 095°13'1 0.3
2017-Jul-14 02:00N 29°43' W 095°14'3 5.4
2017-Jul-14 01:30N 29°45' W 095°11'3 7.0
2017-Jul-14 01:00N 29°44' W 095°07'3 6.2
2017-Jul-14 00:27N 29°47' W 095°05'1 0.4
2017-Jul-13 22:41N 29°47' W 095°05'0 0.0
2017-Jul-13 13:47N 29°47' W 095°06'0 0.0
2017-Jul-13 12:56N 29°47' W 095°06'1 0.5
2017-Jul-13 10:57N 29°47' W 095°05'1 2.0
2017-Jul-13 10:30N 29°47' W 095°06'0 0.0
2017-Jul-13 10:00N 29°47' W 095°06'0 0.0
2017-Jul-13 09:30N 29°47' W 095°06'0 0.0
2017-Jul-13 08:59N 29°47' W 095°06'0 0.0
2017-Jul-13 08:30N 29°47' W 095°06'  

Dump ship's entire track history